Time;durP1;ratioP1;P1;durP2;ratioP2;P2;SDS_P1;SDS_P2;PMS_P1;PMS_P2;Temp;Humidity;BMP_temperature;BMP_pressure;BME280_temperature;BME280_humidity;BME280_pressure;Samples;Min_cycle;Max_cycle;Signal;HPM_P1;HPM_P2
2021/12/08 00:04:42;;;;;;;;;;;2.50;99.90;;;;;;5920975;23;19934;-81
2021/12/08 00:07:08;;;;;;;;;;;3.40;99.90;;;;;;4985777;28;19933;-81
2021/12/08 00:09:47;;;;;;;;;;;2.40;99.90;;;;;;4993453;28;20461;-79
2021/12/08 00:14:57;;;;;;;;;;;2.20;99.90;;;;;;4992669;28;19925;-78
2021/12/08 00:17:23;;;;;;;;;;;2.10;99.90;;;;;;4993355;28;20016;-79
2021/12/08 00:19:49;;;;;;;;;;;2.10;99.90;;;;;;4992250;28;19925;-80
2021/12/08 00:22:15;;;;;;;;;;;2.00;99.90;;;;;;4993561;28;19925;-80
2021/12/08 00:24:40;;;;;;;;;;;2.00;99.90;;;;;;5011126;28;19925;-81
2021/12/08 00:27:06;;;;;;;;;;;2.00;99.90;;;;;;4994601;28;20480;-80
2021/12/08 00:29:31;;;;;;;;;;;2.00;99.90;;;;;;4993164;28;19934;-79
2021/12/08 00:31:58;;;;;;;;;;;2.00;99.90;;;;;;4993334;28;20151;-79
2021/12/08 00:34:24;;;;;;;;;;;2.10;99.90;;;;;;4990435;28;19932;-79
2021/12/08 00:36:54;;;;;;;;;;;2.10;99.90;;;;;;4992826;28;19933;-79
2021/12/08 00:39:23;;;;;;;;;;;2.10;99.90;;;;;;4992764;28;19932;-79
2021/12/08 00:41:49;;;;;;;;;;;2.10;99.90;;;;;;4991582;28;20019;-79
2021/12/08 00:44:14;;;;;;;;;;;2.10;99.90;;;;;;4989444;28;19934;-80
2021/12/08 00:46:40;;;;;;;;;;;2.10;99.90;;;;;;4992041;28;20016;-79
2021/12/08 00:49:06;;;;;;;;;;;2.10;99.90;;;;;;4989341;28;19936;-79
2021/12/08 00:51:32;;;;;;;;;;;2.10;99.90;;;;;;4989360;28;19925;-80
2021/12/08 00:53:57;;;;;;;;;;;2.20;99.90;;;;;;4992421;28;20388;-82
2021/12/08 00:56:23;;;;;;;;;;;2.20;99.90;;;;;;4990419;28;19968;-79
2021/12/08 00:58:48;;;;;;;;;;;2.10;99.90;;;;;;4991510;28;20431;-79
2021/12/08 01:01:15;;;;;;;;;;;2.20;99.90;;;;;;4991756;28;19936;-81
2021/12/08 01:03:40;;;;;;;;;;;2.90;99.90;;;;;;4991189;28;19932;-81
2021/12/08 01:06:06;;;;;;;;;;;2.20;99.90;;;;;;4991541;28;19933;-81
2021/12/08 01:08:32;;;;;;;;;;;2.20;99.90;;;;;;4991327;28;19973;-81
2021/12/08 01:11:00;;;;;;;;;;;2.20;99.90;;;;;;4990872;28;19939;-79
2021/12/08 01:13:26;;;;;;;;;;;2.30;99.90;;;;;;4991562;28;19964;-81
2021/12/08 01:15:53;;;;;;;;;;;2.30;99.90;;;;;;4991116;28;19943;-80
2021/12/08 01:18:19;;;;;;;;;;;2.30;99.90;;;;;;4991757;28;20028;-79
2021/12/08 01:20:45;;;;;;;;;;;2.30;99.90;;;;;;4991784;28;20038;-80
2021/12/08 01:23:11;;;;;;;;;;;2.40;99.90;;;;;;4986434;28;20000;-80
2021/12/08 01:25:37;;;;;;;;;;;2.40;99.90;;;;;;4991812;28;19991;-80
2021/12/08 01:28:02;;;;;;;;;;;2.40;99.90;;;;;;4991815;28;19933;-79
2021/12/08 01:30:28;;;;;;;;;;;2.50;99.90;;;;;;4990760;28;19929;-81
2021/12/08 01:32:53;;;;;;;;;;;2.50;99.90;;;;;;4991584;28;19921;-80
2021/12/08 01:35:19;;;;;;;;;;;2.50;99.90;;;;;;4991709;28;20392;-78
2021/12/08 01:37:45;;;;;;;;;;;2.60;99.90;;;;;;4991348;28;20301;-79
2021/12/08 01:40:14;;;;;;;;;;;2.60;99.90;;;;;;4991432;28;19930;-79
2021/12/08 01:42:45;;;;;;;;;;;2.70;99.90;;;;;;4982963;28;20504;-79
2021/12/08 01:47:56;;;;;;;;;;;2.70;99.90;;;;;;4983923;28;19971;-79
2021/12/08 01:50:22;;;;;;;;;;;3.10;99.90;;;;;;4991017;28;20023;-79
2021/12/08 01:52:47;;;;;;;;;;;2.80;99.90;;;;;;4990118;28;19929;-80
2021/12/08 01:55:13;;;;;;;;;;;2.80;99.90;;;;;;4991640;28;19925;-81
2021/12/08 01:57:39;;;;;;;;;;;2.80;99.90;;;;;;4990917;28;19933;-80
2021/12/08 02:00:07;;;;;;;;;;;2.90;99.90;;;;;;4989341;28;19936;-80
2021/12/08 02:02:33;;;;;;;;;;;2.90;99.90;;;;;;4990196;28;20019;-81
2021/12/08 02:04:58;;;;;;;;;;;2.90;99.90;;;;;;4989829;28;20469;-80
2021/12/08 02:07:24;;;;;;;;;;;2.90;99.90;;;;;;4990847;28;19925;-82
2021/12/08 02:09:49;;;;;;;;;;;2.90;99.90;;;;;;4990398;28;20008;-79
2021/12/08 02:12:15;;;;;;;;;;;3.00;99.90;;;;;;4990427;28;19936;-80
2021/12/08 02:14:40;;;;;;;;;;;3.00;99.90;;;;;;4990291;28;19937;-80
2021/12/08 02:17:10;;;;;;;;;;;3.00;99.90;;;;;;5010503;28;19913;-80
2021/12/08 02:19:36;;;;;;;;;;;3.00;99.90;;;;;;4988438;28;20285;-82
2021/12/08 02:22:02;;;;;;;;;;;3.00;99.90;;;;;;4990240;28;19925;-80
2021/12/08 02:24:27;;;;;;;;;;;3.00;99.90;;;;;;4990392;28;19925;-79
2021/12/08 02:26:54;;;;;;;;;;;3.00;99.90;;;;;;4989015;28;19925;-81
2021/12/08 02:29:28;;;;;;;;;;;3.00;99.90;;;;;;4990409;28;19926;-80
2021/12/08 02:32:01;;;;;;;;;;;3.00;99.90;;;;;;4989024;28;19933;-80
2021/12/08 02:48:08;;;;;;;;;;;3.10;99.90;;;;;;4989065;28;19925;-80
2021/12/08 02:50:39;;;;;;;;;;;3.10;99.90;;;;;;4989684;28;19932;-82
2021/12/08 02:53:05;;;;;;;;;;;3.00;99.90;;;;;;4990096;28;19937;-80
2021/12/08 02:55:30;;;;;;;;;;;3.10;99.90;;;;;;4989760;28;20284;-82
2021/12/08 02:57:56;;;;;;;;;;;3.10;99.90;;;;;;4993083;28;19925;-80
2021/12/08 03:00:25;;;;;;;;;;;3.10;99.90;;;;;;4993543;28;20040;-81
2021/12/08 03:02:56;;;;;;;;;;;3.10;99.90;;;;;;4993511;28;19926;-80
2021/12/08 03:05:22;;;;;;;;;;;3.10;99.90;;;;;;4993805;28;19937;-80
2021/12/08 03:07:48;;;;;;;;;;;3.10;99.90;;;;;;4994165;28;19929;-81
2021/12/08 03:10:15;;;;;;;;;;;3.10;99.90;;;;;;4992690;28;19962;-79
2021/12/08 03:12:41;;;;;;;;;;;3.00;99.90;;;;;;4993994;28;20227;-81
2021/12/08 03:15:08;;;;;;;;;;;3.10;99.90;;;;;;4992201;28;20004;-80
2021/12/08 03:17:34;;;;;;;;;;;3.10;99.90;;;;;;4994526;28;19929;-80
2021/12/08 03:20:01;;;;;;;;;;;3.10;99.90;;;;;;4991681;28;20377;-81
2021/12/08 03:22:26;;;;;;;;;;;3.10;99.90;;;;;;4985541;28;19925;-81
2021/12/08 03:24:53;;;;;;;;;;;3.10;99.90;;;;;;4993819;28;20392;-81
2021/12/08 03:27:26;;;;;;;;;;;3.10;99.90;;;;;;4993798;28;19925;-82
2021/12/08 03:29:56;;;;;;;;;;;3.20;99.90;;;;;;4991385;28;20326;-81
2021/12/08 03:32:38;;;;;;;;;;;3.20;99.90;;;;;;4993477;28;19926;-80
2021/12/08 03:35:05;;;;;;;;;;;3.30;99.90;;;;;;4990651;28;19933;-81
2021/12/08 03:37:35;;;;;;;;;;;3.30;99.90;;;;;;4992748;28;20346;-82
2021/12/08 03:40:05;;;;;;;;;;;3.30;99.90;;;;;;4992641;28;20357;-80
2021/12/08 03:42:34;;;;;;;;;;;3.70;99.90;;;;;;4992855;28;19929;-81
2021/12/08 03:45:02;;;;;;;;;;;3.30;99.90;;;;;;4991463;28;19935;-81
2021/12/08 03:47:29;;;;;;;;;;;3.30;99.90;;;;;;4989808;28;20259;-82
2021/12/08 03:49:56;;;;;;;;;;;3.40;99.90;;;;;;4991136;28;19933;-80
2021/12/08 03:52:22;;;;;;;;;;;3.40;99.90;;;;;;4991622;28;20032;-81
2021/12/08 03:54:47;;;;;;;;;;;3.40;99.90;;;;;;4992244;28;20417;-80
2021/12/08 03:57:13;;;;;;;;;;;3.40;99.90;;;;;;5009371;28;19925;-80
2021/12/08 03:59:39;;;;;;;;;;;3.40;99.90;;;;;;4991723;28;19926;-81
2021/12/08 04:02:05;;;;;;;;;;;3.50;99.90;;;;;;4991353;28;20255;-79
2021/12/08 04:04:40;;;;;;;;;;;3.50;99.90;;;;;;4991672;28;19925;-80
2021/12/08 04:07:05;;;;;;;;;;;3.50;99.90;;;;;;4995691;28;20397;-80
2021/12/08 04:09:37;;;;;;;;;;;3.50;99.90;;;;;;5009303;28;19932;-79
2021/12/08 04:12:02;;;;;;;;;;;3.60;99.90;;;;;;4993821;28;19960;-79
2021/12/08 04:14:30;;;;;;;;;;;3.60;99.90;;;;;;4981734;28;19929;-80
2021/12/08 04:17:00;;;;;;;;;;;3.60;99.90;;;;;;4991156;28;19926;-80
2021/12/08 04:19:26;;;;;;;;;;;3.60;99.90;;;;;;4990632;28;19929;-79
2021/12/08 04:21:54;;;;;;;;;;;3.60;99.90;;;;;;4990851;28;19929;-80
2021/12/08 04:24:20;;;;;;;;;;;3.60;99.90;;;;;;4991552;28;19976;-80
2021/12/08 04:26:45;;;;;;;;;;;3.70;99.90;;;;;;4990457;28;19930;-80
2021/12/08 04:29:12;;;;;;;;;;;3.70;99.90;;;;;;4991552;28;19925;-79
2021/12/08 04:31:39;;;;;;;;;;;3.70;99.90;;;;;;4988106;28;20365;-78
2021/12/08 04:34:06;;;;;;;;;;;3.70;99.90;;;;;;5008364;28;19952;-80
2021/12/08 04:36:38;;;;;;;;;;;3.70;99.90;;;;;;4991311;28;19925;-79
2021/12/08 04:39:11;;;;;;;;;;;3.80;99.90;;;;;;4983857;28;19934;-80
2021/12/08 04:41:42;;;;;;;;;;;3.80;99.90;;;;;;4990233;28;19926;-80
2021/12/08 04:44:24;;;;;;;;;;;3.80;99.90;;;;;;5000503;28;20032;-80
2021/12/08 04:52:20;;;;;;;;;;;3.90;99.90;;;;;;4990495;28;19937;-80
2021/12/08 06:56:55;;;;;;;;;;;5.20;99.90;;;;;;5509542;22;20031;-80
2021/12/08 06:59:22;;;;;;;;;;;5.20;99.90;;;;;;5057202;28;20377;-83
2021/12/08 07:02:02;;;;;;;;;;;5.20;99.90;;;;;;5037953;28;19929;-81
2021/12/08 07:04:35;;;;;;;;;;;5.20;99.90;;;;;;5057165;28;20416;-81
2021/12/08 07:07:16;;;;;;;;;;;5.20;99.90;;;;;;5023294;28;19944;-81
2021/12/08 07:09:46;;;;;;;;;;;5.10;99.90;;;;;;5022846;28;19996;-81
2021/12/08 07:12:26;;;;;;;;;;;5.10;99.90;;;;;;5022571;28;19926;-81
2021/12/08 07:14:54;;;;;;;;;;;5.10;99.90;;;;;;5021450;28;20074;-81
2021/12/08 07:20:03;;;;;;;;;;;5.00;99.90;;;;;;5412857;22;20307;-80
2021/12/08 07:22:29;;;;;;;;;;;5.30;99.90;;;;;;5045203;28;19925;-82
2021/12/08 07:24:59;;;;;;;;;;;5.00;99.90;;;;;;5043231;28;20022;-80
2021/12/08 07:27:26;;;;;;;;;;;5.00;99.90;;;;;;5052708;28;19948;-80
2021/12/08 07:29:52;;;;;;;;;;;5.00;99.90;;;;;;5030751;28;19926;-80
2021/12/08 07:34:54;;;;;;;;;;;4.90;99.90;;;;;;5280200;22;20380;-79
2021/12/08 07:37:31;;;;;;;;;;;5.00;99.90;;;;;;5050958;28;20020;-80
2021/12/08 07:39:59;;;;;;;;;;;4.90;99.90;;;;;;5053376;28;19935;-78
2021/12/08 07:50:23;;;;;;;;;;;4.90;99.90;;;;;;5199161;22;19928;-79
2021/12/08 07:52:51;;;;;;;;;;;4.90;99.90;;;;;;5061392;28;19993;-80
2021/12/08 07:55:18;;;;;;;;;;;4.90;99.90;;;;;;5067678;28;19925;-79
2021/12/08 07:57:44;;;;;;;;;;;4.90;99.90;;;;;;5051414;28;19936;-79
2021/12/08 08:00:12;;;;;;;;;;;4.90;99.90;;;;;;5056968;28;19928;-80
2021/12/08 08:02:38;;;;;;;;;;;4.90;99.90;;;;;;5058009;28;20556;-80
2021/12/08 08:05:05;;;;;;;;;;;4.80;99.90;;;;;;5046950;28;20004;-79
2021/12/08 08:07:32;;;;;;;;;;;4.80;99.90;;;;;;5034363;28;20377;-80
2021/12/08 08:10:00;;;;;;;;;;;4.80;99.90;;;;;;5037163;28;19967;-80
2021/12/08 08:30:46;;;;;;;;;;;4.90;99.90;;;;;;5259663;22;20289;-82
2021/12/08 08:33:12;;;;;;;;;;;5.30;99.90;;;;;;5046402;22;19995;-81
2021/12/08 08:35:40;;;;;;;;;;;4.90;99.90;;;;;;5040147;28;19945;-81
2021/12/08 08:38:08;;;;;;;;;;;4.90;99.90;;;;;;5034507;28;19979;-80
2021/12/08 08:40:37;;;;;;;;;;;5.00;99.90;;;;;;5040978;28;19925;-81
2021/12/08 08:43:09;;;;;;;;;;;5.80;99.90;;;;;;5041851;28;19925;-80
2021/12/08 08:45:40;;;;;;;;;;;5.00;99.90;;;;;;5033622;28;20385;-81
2021/12/08 08:48:17;;;;;;;;;;;5.00;99.90;;;;;;5039072;28;19967;-81
2021/12/08 08:50:52;;;;;;;;;;;5.00;99.90;;;;;;5038339;28;19933;-81
2021/12/08 08:53:20;;;;;;;;;;;5.00;99.90;;;;;;5037898;28;20372;-81
2021/12/08 08:56:01;;;;;;;;;;;5.00;99.90;;;;;;5042471;28;19929;-80
2021/12/08 09:03:38;;;;;;;;;;;5.10;99.90;;;;;;5057795;22;19925;-79
2021/12/08 09:06:06;;;;;;;;;;;5.20;99.90;;;;;;5026918;28;19947;-82
2021/12/08 09:08:32;;;;;;;;;;;5.20;99.90;;;;;;5014599;28;19925;-79
2021/12/08 09:11:18;;;;;;;;;;;5.30;99.90;;;;;;5017636;28;19952;-80
2021/12/08 09:19:01;;;;;;;;;;;5.40;99.90;;;;;;5336428;22;19932;-77
2021/12/08 09:39:30;;;;;;;;;;;5.30;99.90;;;;;;5582507;23;20261;-80
2021/12/08 09:47:06;;;;;;;;;;;5.40;99.90;;;;;;5620970;22;19980;-82
2021/12/08 09:49:33;;;;;;;;;;;5.40;99.90;;;;;;4991992;28;20349;-79
2021/12/08 09:51:59;;;;;;;;;;;5.40;99.90;;;;;;5006224;28;20309;-80
2021/12/08 09:54:28;;;;;;;;;;;6.20;99.90;;;;;;4997312;28;19976;-78
2021/12/08 09:56:58;;;;;;;;;;;5.40;99.90;;;;;;5003642;28;19926;-79
2021/12/08 10:02:03;;;;;;;;;;;5.90;99.90;;;;;;5787567;23;19926;-79
2021/12/08 10:04:29;;;;;;;;;;;6.60;99.90;;;;;;5004747;28;19931;-80
2021/12/08 10:06:58;;;;;;;;;;;7.50;99.90;;;;;;5009992;28;20024;-79
2021/12/08 10:12:02;;;;;;;;;;;8.20;99.90;;;;;;5566443;23;19941;-79
2021/12/08 10:14:31;;;;;;;;;;;8.40;99.90;;;;;;4962395;28;19962;-78
2021/12/08 10:19:25;;;;;;;;;;;8.30;99.90;;;;;;6011552;23;19993;-79
2021/12/08 10:21:50;;;;;;;;;;;8.80;99.90;;;;;;5010305;28;19929;-79
2021/12/08 10:24:26;;;;;;;;;;;8.80;99.90;;;;;;5009827;28;19975;-80
2021/12/08 10:26:59;;;;;;;;;;;8.70;99.90;;;;;;4995658;28;19929;-80
2021/12/08 10:29:28;;;;;;;;;;;8.30;99.90;;;;;;5003973;28;20408;-78
2021/12/08 10:31:54;;;;;;;;;;;8.10;99.90;;;;;;5008820;28;19930;-80
2021/12/08 10:34:23;;;;;;;;;;;8.40;99.90;;;;;;5011419;28;19926;-79
2021/12/08 10:54:27;;;;;;;;;;;10.40;95.90;;;;;;4965670;28;19926;-78
2021/12/08 11:02:37;;;;;;;;;;;10.80;94.00;;;;;;5304349;22;20222;-79
2021/12/08 11:05:21;;;;;;;;;;;11.20;99.90;;;;;;5271173;22;19930;-79
2021/12/08 11:08:05;;;;;;;;;;;11.60;97.20;;;;;;5002361;23;19936;-80
2021/12/08 11:10:32;;;;;;;;;;;11.90;88.30;;;;;;4999521;28;19925;-79
2021/12/08 11:13:00;;;;;;;;;;;12.30;95.90;;;;;;5001047;28;20029;-79
2021/12/08 11:15:27;;;;;;;;;;;12.40;89.90;;;;;;4996255;28;19934;-81
2021/12/08 11:18:11;;;;;;;;;;;11.90;79.90;;;;;;4995829;28;19945;-81
2021/12/08 11:21:24;;;;;;;;;;;11.00;90.60;;;;;;4996616;28;19933;-81
2021/12/08 11:23:55;;;;;;;;;;;9.90;93.70;;;;;;4972068;28;20010;-81
2021/12/08 11:26:21;;;;;;;;;;;8.90;96.50;;;;;;4996656;28;19969;-79
2021/12/08 11:29:05;;;;;;;;;;;8.30;99.80;;;;;;4996058;28;19969;-80
2021/12/08 11:34:55;;;;;;;;;;;7.50;99.90;;;;;;5009420;22;19937;-80
2021/12/08 11:40:13;;;;;;;;;;;6.90;99.90;;;;;;5031137;23;20476;-79
2021/12/08 11:42:39;;;;;;;;;;;6.80;99.90;;;;;;4980317;28;19926;-82
2021/12/08 11:45:12;;;;;;;;;;;6.70;99.90;;;;;;4980750;28;19936;-79
2021/12/08 11:52:52;;;;;;;;;;;6.50;99.90;;;;;;5198428;23;19926;-82
2021/12/08 12:22:51;;;;;;;;;;;6.20;99.90;;;;;;5154219;23;19925;-80
2021/12/08 12:25:36;;;;;;;;;;;6.10;99.90;;;;;;5162145;23;19934;-81
2021/12/08 12:33:14;;;;;;;;;;;6.00;99.90;;;;;;5107515;23;19944;-81
2021/12/08 12:35:51;;;;;;;;;;;5.90;99.90;;;;;;5020993;28;20303;-80
2021/12/08 12:38:17;;;;;;;;;;;5.00;99.90;;;;;;5020683;28;19951;-83
2021/12/08 12:47:03;;;;;;;;;;;5.90;99.90;;;;;;5189251;22;20428;-81
2021/12/08 12:49:32;;;;;;;;;;;5.90;99.90;;;;;;5036750;28;19928;-80
2021/12/08 12:51:58;;;;;;;;;;;5.90;99.90;;;;;;5040936;28;20318;-83
2021/12/08 12:54:24;;;;;;;;;;;5.90;99.90;;;;;;5391764;22;20314;-79
2021/12/08 12:56:51;;;;;;;;;;;5.90;99.90;;;;;;5000831;28;19971;-80
2021/12/08 12:59:20;;;;;;;;;;;5.80;99.90;;;;;;4992811;28;19921;-80
2021/12/08 13:02:02;;;;;;;;;;;5.80;99.90;;;;;;4993771;28;19926;-82
2021/12/08 13:04:29;;;;;;;;;;;5.80;99.90;;;;;;4997853;28;19932;-80
2021/12/08 13:09:39;;;;;;;;;;;5.90;99.90;;;;;;5000533;28;19929;-83
2021/12/08 13:12:06;;;;;;;;;;;5.80;99.90;;;;;;5000608;28;20000;-79
2021/12/08 13:14:32;;;;;;;;;;;5.80;99.90;;;;;;5142901;23;20292;-80
2021/12/08 13:19:41;;;;;;;;;;;5.80;99.90;;;;;;4346648;26;21113;-80
2021/12/08 13:30:06;;;;;;;;;;;5.80;99.90;;;;;;5741220;22;19925;-79
2021/12/08 13:32:45;;;;;;;;;;;5.80;99.90;;;;;;5018942;28;20362;-81
2021/12/08 13:35:10;;;;;;;;;;;5.80;99.90;;;;;;5038102;28;19933;-79
2021/12/08 13:37:36;;;;;;;;;;;5.80;99.90;;;;;;5020861;28;20381;-79
2021/12/08 13:40:06;;;;;;;;;;;5.80;99.90;;;;;;5018976;28;19928;-80
2021/12/08 13:54:39;;;;;;;;;;;5.70;99.90;;;;;;5832533;22;20359;-83
2021/12/08 13:57:24;;;;;;;;;;;5.70;99.90;;;;;;5034382;28;20352;-80
2021/12/08 14:07:32;;;;;;;;;;;5.70;99.90;;;;;;5039734;28;19943;-80
2021/12/08 14:09:59;;;;;;;;;;;5.70;99.90;;;;;;5037612;22;20324;-80
2021/12/08 15:24:38;;;;;;;;;;;5.10;99.90;;;;;;6257063;23;20005;-81
2021/12/08 15:35:31;;;;;;;;;;;4.80;99.90;;;;;;6241381;22;20603;-82
2021/12/08 15:37:57;;;;;;;;;;;3.50;99.90;;;;;;6238238;23;19924;-86
2021/12/08 15:40:47;;;;;;;;;;;5.10;99.90;;;;;;6244940;23;19974;-82
2021/12/08 15:43:23;;;;;;;;;;;4.70;99.90;;;;;;6237985;23;20256;-81
2021/12/08 15:45:53;;;;;;;;;;;3.30;99.90;;;;;;6240584;22;19931;-80
2021/12/08 16:09:52;;;;;;;;;;;2.00;99.90;;;;;;6269911;22;19915;-79
2021/12/08 16:43:13;;;;;;;;;;;4.00;99.90;;;;;;6272038;22;19950;-80
2021/12/08 16:46:01;;;;;;;;;;;3.90;99.90;;;;;;6241338;22;19961;-81
2021/12/08 16:52:09;;;;;;;;;;;3.30;99.90;;;;;;6270328;22;19957;-81
2021/12/08 16:54:51;;;;;;;;;;;5.60;99.90;;;;;;6242946;22;19919;-81
2021/12/08 17:09:28;;;;;;;;;;;3.70;99.90;;;;;;6291235;22;19981;-79
2021/12/08 17:11:53;;;;;;;;;;;3.70;99.90;;;;;;6266530;22;19923;-79
2021/12/08 17:26:29;;;;;;;;;;;3.50;99.90;;;;;;6269955;22;19961;-79
2021/12/08 17:29:05;;;;;;;;;;;2.00;99.90;;;;;;6244178;22;19920;-82
2021/12/08 17:43:16;;;;;;;;;;;3.40;99.90;;;;;;6271594;22;19919;-80
2021/12/08 17:45:46;;;;;;;;;;;4.30;99.90;;;;;;6242195;22;19923;-80
2021/12/08 18:20:40;;;;;;;;;;;1.30;99.90;;;;;;6274599;22;19930;-83
